Durbuy, Belgium
Current Conditions -  °F | °C
As of 8:20 PM on Friday 28 Nov 2014 (Local Time) from EBLG Reporting Station
Haze Haze  
Wind Chill: 41°   Ceiling: Unl
Heat Index: 41°   Visibility: 3mi
Dew Point: 39°   Wind: 3mph
Humidity: 93%   Direction: 60°ENE
Pressure: 29.77"   Gusts: NA
Location:  50.35°N, 5.46°E
Report Text: EBLG 281920Z 06003KT 5000 BR NSC 05/04 Q1008 NOSIG
Loading
Personal Weather Stations






























Interactive Weather Map New forecast layout! Learn more

10-Day Weather Forecast

Advertisements
Track Severe Weather on mobile